createdAt,value
2023-03-07T00:00:08.191Z,99345.94
2023-03-07T00:02:35.123Z,99340.72
2023-03-07T00:05:01.808Z,99341.53
2023-03-07T00:07:28.530Z,99344.09
2023-03-07T00:09:55.126Z,99335.88
2023-03-07T00:12:22.314Z,99334.59
2023-03-07T00:14:48.999Z,99339.66
2023-03-07T00:17:15.638Z,99339.44
2023-03-07T00:19:43.596Z,99335.59
2023-03-07T00:22:14.201Z,99332.72
2023-03-07T00:24:41.412Z,99330.63
2023-03-07T00:27:08.822Z,99334.44
2023-03-07T00:29:35.453Z,99332.03
2023-03-07T00:32:02.354Z,99326.25
2023-03-07T00:34:29.082Z,99325.19
2023-03-07T00:36:55.817Z,99321.16
2023-03-07T00:39:22.646Z,99321.38
2023-03-07T00:41:49.427Z,99317.44
2023-03-07T00:44:16.156Z,99320.56
2023-03-07T00:46:42.815Z,99320.78
2023-03-07T00:49:09.821Z,99319.25
2023-03-07T00:51:36.418Z,99315.34
2023-03-07T00:54:03.926Z,99308.38
2023-03-07T00:56:30.977Z,99304.94
2023-03-07T00:58:57.715Z,99299.97
2023-03-07T01:01:25.604Z,99295.00
2023-03-07T01:03:53.863Z,99300.44
2023-03-07T01:06:23.810Z,99291.88
2023-03-07T01:08:51.631Z,99296.59
2023-03-07T01:11:18.507Z,99287.38
2023-03-07T01:13:45.765Z,99292.31
2023-03-07T01:16:16.915Z,99289.78
2023-03-07T01:18:45.079Z,99285.03
2023-03-07T01:21:21.723Z,99276.72
2023-03-07T01:23:49.674Z,99274.50
2023-03-07T01:26:22.354Z,99275.09
2023-03-07T01:28:51.449Z,99282.50
2023-03-07T01:31:18.214Z,99283.19
2023-03-07T01:33:47.142Z,99278.44
2023-03-07T01:36:30.247Z,99281.34
2023-03-07T01:39:10.317Z,99279.59
2023-03-07T01:41:40.101Z,99273.69
2023-03-07T01:44:19.569Z,99274.50
2023-03-07T01:46:54.399Z,99269.06
2023-03-07T01:49:31.459Z,99263.75
2023-03-07T01:52:11.231Z,99269.63
2023-03-07T01:54:48.915Z,99262.22
2023-03-07T01:57:24.841Z,99257.72
2023-03-07T01:59:56.035Z,99252.72
2023-03-07T02:02:24.463Z,99245.09
2023-03-07T02:05:07.061Z,99253.91
2023-03-07T02:07:41.135Z,99245.09
2023-03-07T02:10:10.559Z,99244.53
2023-03-07T02:12:38.382Z,99247.16
2023-03-07T02:15:05.637Z,99250.19
2023-03-07T02:17:32.408Z,99231.06
2023-03-07T02:20:02.648Z,99240.75
2023-03-07T02:22:30.690Z,99238.94
2023-03-07T02:25:02.612Z,99233.63
2023-03-07T02:27:35.087Z,99230.25
2023-03-07T02:30:04.068Z,99227.34
2023-03-07T02:32:31.484Z,99224.69
2023-03-07T02:34:58.265Z,99229.53
2023-03-07T02:37:38.419Z,99222.72
2023-03-07T02:40:11.692Z,99222.00
2023-03-07T02:42:42.230Z,99220.97
2023-03-07T02:45:15.521Z,99210.00
2023-03-07T02:47:44.168Z,99218.25
2023-03-07T02:50:14.525Z,99217.19
2023-03-07T02:52:43.857Z,99212.78
2023-03-07T02:55:11.107Z,99208.97
2023-03-07T02:57:42.194Z,99207.47
2023-03-07T03:00:11.916Z,99209.22
2023-03-07T03:02:38.778Z,99206.66
2023-03-07T03:05:06.030Z,99201.13
2023-03-07T03:07:32.607Z,99198.34
2023-03-07T03:10:02.148Z,99202.16
2023-03-07T03:12:31.242Z,99194.66
2023-03-07T03:14:58.660Z,99190.25
2023-03-07T03:17:25.365Z,99184.78
2023-03-07T03:19:52.048Z,99191.31
2023-03-07T03:22:18.765Z,99192.19
2023-03-07T03:24:47.605Z,99192.88
2023-03-07T03:27:16.846Z,99193.97
2023-03-07T03:29:45.251Z,99191.50
2023-03-07T03:32:12.433Z,99192.78
2023-03-07T03:34:42.075Z,99189.88
2023-03-07T03:37:08.756Z,99186.66
2023-03-07T03:39:35.619Z,99180.88
2023-03-07T03:42:02.523Z,99179.09
2023-03-07T03:44:29.796Z,99175.72
2023-03-07T03:46:57.538Z,99172.75
2023-03-07T03:49:24.697Z,99171.28
2023-03-07T03:51:53.882Z,99171.28
2023-03-07T03:54:20.746Z,99169.25
2023-03-07T03:56:47.363Z,99166.84
2023-03-07T03:59:14.164Z,99153.66
2023-03-07T04:01:41.397Z,99159.13
2023-03-07T04:04:08.422Z,99157.28
2023-03-07T04:06:35.380Z,99156.47
2023-03-07T04:09:04.707Z,99155.31
2023-03-07T04:11:32.470Z,99153.69
2023-03-07T04:13:59.550Z,99159.34
2023-03-07T04:16:26.491Z,99153.91
2023-03-07T04:18:54.058Z,99147.75
2023-03-07T04:21:22.360Z,99142.44
2023-03-07T04:23:55.257Z,99136.09
2023-03-07T04:26:23.748Z,99136.91
2023-03-07T04:28:50.405Z,99138.28
2023-03-07T04:31:28.722Z,99128.94
2023-03-07T04:33:58.293Z,99115.16
2023-03-07T04:36:25.254Z,99120.91
2023-03-07T04:38:52.766Z,99117.72
2023-03-07T04:41:23.056Z,99121.63
2023-03-07T04:43:53.803Z,99120.94
2023-03-07T04:46:22.874Z,99116.75
2023-03-07T04:48:50.477Z,99116.06
2023-03-07T04:51:18.112Z,99112.69
2023-03-07T04:53:45.040Z,99112.22
2023-03-07T04:56:13.972Z,99106.47
2023-03-07T04:58:40.984Z,99097.56
2023-03-07T05:01:08.013Z,99105.22
2023-03-07T05:03:35.952Z,99102.00
2023-03-07T05:06:10.382Z,99103.94
2023-03-07T05:08:37.440Z,99100.94
2023-03-07T05:11:04.272Z,99101.41
2023-03-07T05:13:31.845Z,99096.78
2023-03-07T05:15:59.524Z,99098.16
2023-03-07T05:18:28.031Z,99099.75
2023-03-07T05:20:56.877Z,99101.03
2023-03-07T05:23:23.906Z,99092.38
2023-03-07T05:25:51.704Z,99089.38
2023-03-07T05:28:18.995Z,99089.06
2023-03-07T05:30:46.780Z,99094.22
2023-03-07T05:33:14.198Z,99093.78
2023-03-07T05:35:42.019Z,99089.16
2023-03-07T05:38:10.661Z,99085.38
2023-03-07T05:40:37.461Z,99081.31
2023-03-07T05:43:04.907Z,99084.91
2023-03-07T05:45:32.162Z,99083.84
2023-03-07T05:48:00.257Z,99079.91
2023-03-07T05:50:27.173Z,99085.81
2023-03-07T05:52:54.257Z,99081.66
2023-03-07T05:55:23.852Z,99080.13
2023-03-07T05:57:50.749Z,99073.00
2023-03-07T06:00:18.168Z,99072.44
2023-03-07T06:02:52.718Z,99078.91
2023-03-07T06:05:19.591Z,99067.94
2023-03-07T06:07:46.762Z,99070.81
2023-03-07T06:10:14.866Z,99064.69
2023-03-07T06:12:41.850Z,99080.50
2023-03-07T06:15:09.000Z,99071.50
2023-03-07T06:17:36.347Z,99070.22
2023-03-07T06:20:04.194Z,99072.63
2023-03-07T06:22:32.118Z,99073.75
2023-03-07T06:24:59.103Z,99072.72
2023-03-07T06:27:25.829Z,99068.69
2023-03-07T06:29:52.802Z,99074.56
2023-03-07T06:32:19.423Z,99073.81
2023-03-07T06:34:46.118Z,99074.72
2023-03-07T06:37:13.723Z,99075.91
2023-03-07T06:39:40.547Z,99075.19
2023-03-07T06:42:07.169Z,99076.25
2023-03-07T06:44:34.929Z,99077.75
2023-03-07T06:47:01.835Z,99073.94
2023-03-07T06:49:28.426Z,99077.63
2023-03-07T06:51:55.118Z,99090.69
2023-03-07T06:54:21.781Z,99084.56
2023-03-07T06:56:48.864Z,99085.25
2023-03-07T06:59:19.804Z,99084.66
2023-03-07T07:01:48.540Z,99095.44
2023-03-07T07:04:15.785Z,99081.56
2023-03-07T07:06:42.912Z,99090.22
2023-03-07T07:09:12.570Z,99084.78
2023-03-07T07:11:39.281Z,99084.78
2023-03-07T07:14:09.924Z,99082.56
2023-03-07T07:16:37.922Z,99081.88
2023-03-07T07:19:05.333Z,99087.88
2023-03-07T07:21:32.760Z,99085.44
2023-03-07T07:23:59.404Z,99075.56
2023-03-07T07:26:26.732Z,99079.13
2023-03-07T07:28:53.636Z,99086.78
2023-03-07T07:31:20.336Z,99085.66
2023-03-07T07:33:47.101Z,99093.19
2023-03-07T07:36:15.777Z,99089.94
2023-03-07T07:38:42.791Z,99094.00
2023-03-07T07:41:09.855Z,99087.84
2023-03-07T07:43:36.581Z,99082.59
2023-03-07T07:46:28.453Z,99085.47
2023-03-07T07:48:55.763Z,99076.06
2023-03-07T07:51:22.614Z,99083.59
2023-03-07T07:53:49.272Z,99077.13
2023-03-07T07:56:16.178Z,99079.59
2023-03-07T07:58:42.849Z,99076.53
2023-03-07T08:01:18.013Z,99082.69
2023-03-07T08:03:44.876Z,99079.38
2023-03-07T08:06:13.420Z,99079.44
2023-03-07T08:08:40.247Z,99074.22
2023-03-07T08:11:06.965Z,99074.81
2023-03-07T08:13:33.660Z,99064.09
2023-03-07T08:16:00.377Z,99065.38
2023-03-07T08:18:26.986Z,99061.38
2023-03-07T08:20:53.586Z,99056.25
2023-03-07T08:23:20.168Z,99065.31
2023-03-07T08:25:46.798Z,99059.69
2023-03-07T08:28:13.421Z,99069.88
2023-03-07T08:30:40.047Z,99064.94
2023-03-07T08:33:07.311Z,99061.47
2023-03-07T08:35:34.100Z,99057.13
2023-03-07T08:38:01.167Z,99062.03
2023-03-07T08:40:29.624Z,99060.22
2023-03-07T08:42:56.308Z,99057.38
2023-03-07T08:45:23.976Z,99055.41
2023-03-07T08:47:55.400Z,99048.88
2023-03-07T08:50:28.283Z,99048.06
2023-03-07T08:52:54.960Z,99048.75
2023-03-07T08:55:21.634Z,99051.81
2023-03-07T08:57:48.447Z,99041.22
2023-03-07T09:00:15.519Z,99053.56
2023-03-07T09:02:42.422Z,99055.50
2023-03-07T09:05:09.666Z,99045.47
2023-03-07T09:07:36.336Z,99061.63
2023-03-07T09:10:03.072Z,99047.84
2023-03-07T09:12:30.245Z,99045.59
2023-03-07T09:14:56.857Z,99039.34
2023-03-07T09:17:23.513Z,99042.97
2023-03-07T09:19:50.616Z,99041.75
2023-03-07T09:22:17.750Z,99040.19
2023-03-07T09:24:44.567Z,99037.28
2023-03-07T09:27:11.476Z,99035.34
2023-03-07T09:29:38.236Z,99037.19
2023-03-07T09:32:05.261Z,99030.84
2023-03-07T09:34:32.168Z,99035.41
2023-03-07T09:36:58.912Z,99028.94
2023-03-07T09:39:25.683Z,99025.81
2023-03-07T09:42:05.713Z,99031.41
2023-03-07T09:44:44.326Z,99022.56
2023-03-07T09:48:11.083Z,99029.28
2023-03-07T09:50:57.211Z,99012.25
2023-03-07T09:53:41.144Z,99006.31
2023-03-07T09:56:19.880Z,99002.09
2023-03-07T09:58:51.706Z,98994.41
2023-03-07T10:01:23.006Z,99000.22
2023-03-07T10:04:01.159Z,98993.31
2023-03-07T10:06:38.932Z,98989.44
2023-03-07T10:09:18.578Z,98978.31
2023-03-07T10:12:11.358Z,98984.94
2023-03-07T10:15:08.812Z,98986.13
2023-03-07T10:17:43.630Z,98976.41
2023-03-07T10:20:24.109Z,98972.50
2023-03-07T10:23:05.451Z,98969.41
2023-03-07T10:25:40.735Z,98972.13
2023-03-07T10:28:25.604Z,98963.34
2023-03-07T10:30:58.092Z,98961.50
2023-03-07T10:33:25.700Z,98958.38
2023-03-07T10:36:20.207Z,98963.28
2023-03-07T10:38:59.948Z,98950.31
2023-03-07T10:41:27.159Z,98954.75
2023-03-07T10:43:54.752Z,98960.78
2023-03-07T10:46:27.504Z,98959.97
2023-03-07T10:49:09.468Z,98966.06
2023-03-07T10:51:50.543Z,98955.53
2023-03-07T10:54:21.284Z,98951.22
2023-03-07T10:57:05.523Z,98947.94
2023-03-07T10:59:32.472Z,98955.13
2023-03-07T11:02:01.302Z,98951.16
2023-03-07T11:04:30.332Z,98950.69
2023-03-07T11:07:00.503Z,98944.75
2023-03-07T11:09:34.809Z,98947.06
2023-03-07T11:12:04.644Z,98942.03
2023-03-07T11:14:46.710Z,98941.88
2023-03-07T11:17:25.158Z,98931.19
2023-03-07T11:19:56.840Z,98928.97
2023-03-07T11:22:27.517Z,98929.59
2023-03-07T11:25:12.468Z,98928.34
2023-03-07T11:27:54.388Z,98917.69
2023-03-07T11:30:34.285Z,98908.56
2023-03-07T11:33:15.520Z,98904.41
2023-03-07T11:36:01.839Z,98907.06
2023-03-07T11:38:55.106Z,98908.31
2023-03-07T11:41:29.600Z,98906.19
2023-03-07T11:44:25.835Z,98909.66
2023-03-07T11:47:12.241Z,98909.50
2023-03-07T11:49:45.388Z,98914.88
2023-03-07T11:52:30.903Z,98904.56
2023-03-07T11:55:20.880Z,98911.66
2023-03-07T11:57:56.467Z,98905.53
2023-03-07T12:00:32.448Z,98902.44
2023-03-07T12:03:30.345Z,98900.00
2023-03-07T12:06:11.107Z,98893.94
2023-03-07T12:08:41.967Z,98892.69
2023-03-07T12:11:27.158Z,98896.72
2023-03-07T12:14:22.972Z,98888.97
2023-03-07T12:17:10.563Z,98877.22
2023-03-07T12:19:40.086Z,98876.47
2023-03-07T12:22:22.049Z,98876.41
2023-03-07T12:25:22.428Z,98870.00
2023-03-07T12:28:15.878Z,98868.75
2023-03-07T12:30:59.102Z,98857.84
2023-03-07T12:33:39.558Z,98845.66
2023-03-07T12:36:11.641Z,98851.88
2023-03-07T12:39:13.416Z,98848.13
2023-03-07T12:41:49.070Z,98843.84
2023-03-07T12:44:42.951Z,98844.41
2023-03-07T12:47:32.143Z,98845.38
2023-03-07T12:50:14.938Z,98833.63
2023-03-07T12:53:18.710Z,98834.25
2023-03-07T12:55:55.757Z,98826.97
2023-03-07T12:58:49.393Z,98836.13
2023-03-07T13:01:23.213Z,98831.28
2023-03-07T13:04:11.265Z,98827.22
2023-03-07T13:06:39.801Z,98833.63
2023-03-07T13:09:08.067Z,98830.63
2023-03-07T13:11:34.866Z,98824.53
2023-03-07T13:14:03.261Z,98827.19
2023-03-07T13:16:44.781Z,98825.88
2023-03-07T13:19:39.343Z,98816.34
2023-03-07T13:22:14.732Z,98815.84
2023-03-07T13:24:43.104Z,98812.59
2023-03-07T13:27:18.469Z,98815.75
2023-03-07T13:30:09.894Z,98820.25
2023-03-07T13:32:51.694Z,98825.13
2023-03-07T13:35:30.539Z,98818.72
2023-03-07T13:38:15.498Z,98822.41
2023-03-07T13:40:46.197Z,98825.69
2023-03-07T13:43:19.242Z,98824.59
2023-03-07T13:46:02.043Z,98824.63
2023-03-07T13:48:31.030Z,98821.94
2023-03-07T13:51:00.603Z,98821.63
2023-03-07T13:53:39.445Z,98829.94
2023-03-07T13:56:15.432Z,98829.91
2023-03-07T13:59:06.869Z,98829.16
2023-03-07T14:01:53.371Z,98829.44
2023-03-07T14:04:41.099Z,98835.53
2023-03-07T14:07:16.293Z,98845.72
2023-03-07T14:09:49.830Z,98836.16
2023-03-07T14:12:34.417Z,98833.66
2023-03-07T14:15:22.490Z,98845.41
2023-03-07T14:18:15.275Z,98837.09
2023-03-07T14:20:59.627Z,98844.03
2023-03-07T14:23:52.630Z,98850.94
2023-03-07T14:26:36.874Z,98843.50
2023-03-07T14:29:18.956Z,98853.94
2023-03-07T14:31:46.838Z,98855.50
2023-03-07T14:34:31.479Z,98854.66
2023-03-07T14:37:16.841Z,98859.66
2023-03-07T14:40:09.850Z,98853.75
2023-03-07T14:42:47.997Z,98862.59
2023-03-07T14:45:24.251Z,98869.38
2023-03-07T14:48:06.235Z,98867.50
2023-03-07T14:50:34.097Z,98869.63
2023-03-07T14:53:23.376Z,98877.25
2023-03-07T14:55:52.669Z,98880.75
2023-03-07T14:58:29.277Z,98883.94
2023-03-07T15:01:04.337Z,98873.69
2023-03-07T15:03:32.110Z,98873.97
2023-03-07T15:06:01.476Z,98882.63
2023-03-07T15:08:35.195Z,98879.75
2023-03-07T15:11:33.900Z,98878.25
2023-03-07T15:14:08.624Z,98878.91
2023-03-07T15:16:44.680Z,98882.06
2023-03-07T15:19:19.232Z,98883.13
2023-03-07T15:21:57.553Z,98877.56
2023-03-07T15:24:36.496Z,98881.53
2023-03-07T15:27:04.801Z,98884.66
2023-03-07T15:29:33.119Z,98876.19
2023-03-07T15:32:07.126Z,98874.69
2023-03-07T15:34:37.291Z,98881.91
2023-03-07T15:37:24.438Z,98867.00
2023-03-07T15:40:09.240Z,98870.09
2023-03-07T15:42:56.775Z,98869.13
2023-03-07T15:45:38.543Z,98873.69
2023-03-07T15:48:25.817Z,98868.13
2023-03-07T15:51:06.302Z,98874.41
2023-03-07T15:53:43.248Z,98873.59
2023-03-07T15:56:37.494Z,98875.56
2023-03-07T15:59:09.979Z,98882.00
2023-03-07T16:01:36.659Z,98873.91
2023-03-07T16:04:04.345Z,98879.44
2023-03-07T16:06:38.670Z,98877.31
2023-03-07T16:09:06.793Z,98882.63
2023-03-07T16:11:33.729Z,98870.81
2023-03-07T16:14:01.020Z,98877.34
2023-03-07T16:16:30.082Z,98875.34
2023-03-07T16:18:58.169Z,98870.56
2023-03-07T16:21:26.266Z,98868.00
2023-03-07T16:23:53.038Z,98861.72
2023-03-07T16:26:22.575Z,98865.22
2023-03-07T16:28:50.868Z,98870.38
2023-03-07T16:31:18.762Z,98869.59
2023-03-07T16:33:46.813Z,98863.69
2023-03-07T16:36:14.938Z,98865.81
2023-03-07T16:38:41.942Z,98856.47
2023-03-07T16:41:21.088Z,98851.50
2023-03-07T16:43:57.726Z,98856.72
2023-03-07T16:46:26.002Z,98848.13
2023-03-07T16:48:52.823Z,98848.19
2023-03-07T16:51:21.833Z,98847.91
2023-03-07T16:53:50.458Z,98843.66
2023-03-07T16:56:27.346Z,98851.41
2023-03-07T16:58:54.046Z,98856.47
2023-03-07T17:01:20.693Z,98865.16
2023-03-07T17:03:47.469Z,98869.88
2023-03-07T17:06:16.484Z,98871.75
2023-03-07T17:08:44.659Z,98877.69
2023-03-07T17:11:20.828Z,98878.16
2023-03-07T17:13:49.380Z,98878.66
2023-03-07T17:16:17.015Z,98881.38
2023-03-07T17:18:44.630Z,98885.16
2023-03-07T17:21:16.843Z,98874.34
2023-03-07T17:23:45.009Z,98882.41
2023-03-07T17:26:19.061Z,98881.50
2023-03-07T17:28:46.559Z,98878.13
2023-03-07T17:31:13.457Z,98877.56
2023-03-07T17:33:40.131Z,98877.50
2023-03-07T17:36:12.265Z,98882.84
2023-03-07T17:38:39.068Z,98889.78
2023-03-07T17:41:05.701Z,98898.31
2023-03-07T17:43:33.425Z,98891.19
2023-03-07T17:46:00.742Z,98900.03
2023-03-07T17:48:27.577Z,98898.31
2023-03-07T17:50:54.296Z,98909.06
2023-03-07T17:53:20.943Z,98901.09
2023-03-07T17:55:47.668Z,98898.28
2023-03-07T17:58:14.435Z,98897.66
2023-03-07T18:00:41.072Z,98906.28
2023-03-07T18:03:07.699Z,98911.38
2023-03-07T18:05:34.333Z,98902.53
2023-03-07T18:08:00.990Z,98908.72
2023-03-07T18:10:28.312Z,98896.38
2023-03-07T18:12:55.066Z,98912.81
2023-03-07T18:15:22.836Z,98926.88
2023-03-07T18:17:50.203Z,98921.50
2023-03-07T18:20:19.217Z,98912.53
2023-03-07T18:22:46.003Z,98917.09
2023-03-07T18:25:15.756Z,98925.28
2023-03-07T18:27:43.111Z,98934.56
2023-03-07T18:30:11.781Z,98926.56
2023-03-07T18:32:38.698Z,98923.81
2023-03-07T18:35:06.332Z,98928.44
2023-03-07T18:37:32.960Z,98933.00
2023-03-07T18:39:59.761Z,98931.16
2023-03-07T18:42:27.333Z,98931.78
2023-03-07T18:44:54.484Z,98935.84
2023-03-07T18:47:21.218Z,98937.69
2023-03-07T18:49:53.898Z,98940.66
2023-03-07T18:52:20.646Z,98939.81
2023-03-07T18:54:48.574Z,98945.59
2023-03-07T18:57:15.682Z,98951.31
2023-03-07T18:59:42.515Z,98945.59
2023-03-07T19:02:09.946Z,98938.88
2023-03-07T19:04:36.660Z,98951.47
2023-03-07T19:07:03.983Z,98946.91
2023-03-07T19:09:31.597Z,98946.69
2023-03-07T19:11:58.282Z,98945.19
2023-03-07T19:14:26.300Z,98947.84
2023-03-07T19:16:53.333Z,98944.44
2023-03-07T19:19:20.155Z,98951.81
2023-03-07T19:21:46.745Z,98949.97
2023-03-07T19:24:14.731Z,98955.94
2023-03-07T19:26:43.173Z,98965.00
2023-03-07T19:29:12.934Z,98956.75
2023-03-07T19:31:43.398Z,98961.78
2023-03-07T19:34:10.302Z,98955.09
2023-03-07T19:36:38.403Z,98951.41
2023-03-07T19:39:05.654Z,98952.47
2023-03-07T19:41:32.948Z,98958.44
2023-03-07T19:44:00.567Z,98950.06
2023-03-07T19:46:27.756Z,98956.75
2023-03-07T19:48:54.476Z,98950.31
2023-03-07T19:51:23.562Z,98962.09
2023-03-07T19:53:51.081Z,98956.38
2023-03-07T19:56:24.342Z,98965.63
2023-03-07T19:58:51.216Z,98971.09
2023-03-07T20:01:19.652Z,98970.72
2023-03-07T20:03:47.381Z,98983.94
2023-03-07T20:06:24.324Z,98977.81
2023-03-07T20:08:52.662Z,98989.63
2023-03-07T20:11:27.060Z,98985.56
2023-03-07T20:13:55.891Z,98990.22
2023-03-07T20:16:22.780Z,98978.47
2023-03-07T20:18:50.867Z,98981.56
2023-03-07T20:21:18.703Z,98988.53
2023-03-07T20:23:47.019Z,98984.75
2023-03-07T20:26:16.739Z,98991.41
2023-03-07T20:28:43.720Z,98987.47
2023-03-07T20:31:11.150Z,98986.06
2023-03-07T20:33:39.732Z,98985.38
2023-03-07T20:36:09.828Z,98989.16
2023-03-07T20:38:37.328Z,98982.34
2023-03-07T20:41:14.240Z,98985.97
2023-03-07T20:43:40.904Z,98984.88
2023-03-07T20:46:13.184Z,98978.91
2023-03-07T20:48:41.125Z,98992.38
2023-03-07T20:51:20.644Z,98996.03
2023-03-07T20:53:49.257Z,98998.22
2023-03-07T20:56:17.013Z,99007.28
2023-03-07T20:58:43.902Z,99006.97
2023-03-07T21:01:11.764Z,99016.63
2023-03-07T21:03:38.579Z,99019.81
2023-03-07T21:06:05.832Z,99017.69
2023-03-07T21:08:35.479Z,99015.47
2023-03-07T21:11:05.230Z,99020.75
2023-03-07T21:13:34.849Z,99011.56
2023-03-07T21:16:10.515Z,99013.97
2023-03-07T21:18:37.938Z,99011.44
2023-03-07T21:21:07.245Z,99008.34
2023-03-07T21:23:34.423Z,99005.41
2023-03-07T21:26:06.083Z,99003.84
2023-03-07T21:28:34.176Z,99007.41
2023-03-07T21:31:18.042Z,99000.25
2023-03-07T21:33:47.281Z,99002.69
2023-03-07T21:36:16.212Z,99005.28
2023-03-07T21:38:44.754Z,98998.22
2023-03-07T21:41:12.368Z,99016.03
2023-03-07T21:43:39.127Z,99007.53
2023-03-07T21:46:07.655Z,99017.94
2023-03-07T21:48:34.597Z,99009.69
2023-03-07T21:51:01.650Z,99022.28
2023-03-07T21:53:29.046Z,99032.50
2023-03-07T21:56:04.200Z,99023.69
2023-03-07T21:58:31.636Z,99021.91
2023-03-07T22:00:58.849Z,99022.41
2023-03-07T22:03:27.305Z,99016.22
2023-03-07T22:05:56.882Z,99021.16
2023-03-07T22:08:24.090Z,99013.72
2023-03-07T22:11:00.157Z,99029.25
2023-03-07T22:13:27.971Z,99029.56
2023-03-07T22:15:59.481Z,99032.66
2023-03-07T22:18:26.708Z,99031.28
2023-03-07T22:20:55.070Z,99037.75
2023-03-07T22:23:23.043Z,99030.72
2023-03-07T22:25:49.736Z,99038.78
2023-03-07T22:28:19.190Z,99039.78
2023-03-07T22:30:47.241Z,99041.72
2023-03-07T22:33:13.960Z,99043.81
2023-03-07T22:35:40.653Z,99048.91
2023-03-07T22:38:27.499Z,99052.78
2023-03-07T22:40:54.421Z,99052.63
2023-03-07T22:43:21.088Z,99044.81
2023-03-07T22:45:51.881Z,99058.16
2023-03-07T22:48:18.959Z,99056.91
2023-03-07T22:50:45.561Z,99056.38
2023-03-07T22:53:12.328Z,99061.38
2023-03-07T22:55:43.428Z,99064.44
2023-03-07T22:58:11.230Z,99064.38
2023-03-07T23:00:40.858Z,99073.28
2023-03-07T23:03:07.561Z,99060.44
2023-03-07T23:05:34.775Z,99058.97
2023-03-07T23:08:02.414Z,99066.72
2023-03-07T23:10:29.934Z,99061.69
2023-03-07T23:12:56.604Z,99059.28
2023-03-07T23:15:24.514Z,99059.22
2023-03-07T23:17:51.703Z,99051.69
2023-03-07T23:20:25.328Z,99066.63
2023-03-07T23:22:52.896Z,99071.66
2023-03-07T23:25:20.137Z,99073.28
2023-03-07T23:27:46.783Z,99065.91
2023-03-07T23:30:13.723Z,99061.63
2023-03-07T23:32:40.367Z,99063.50
2023-03-07T23:35:07.396Z,99061.31
2023-03-07T23:37:34.125Z,99068.44
2023-03-07T23:40:01.497Z,99065.31
2023-03-07T23:42:28.269Z,99060.94
2023-03-07T23:44:55.014Z,99061.00
2023-03-07T23:47:21.606Z,99059.78
2023-03-07T23:49:48.120Z,99066.16
2023-03-07T23:52:14.698Z,99064.22
2023-03-07T23:54:44.612Z,99069.06
2023-03-07T23:57:11.232Z,99075.78
2023-03-07T23:59:37.769Z,99073.22
